createdAt,value
2022-07-27T00:00:12.015Z,18.17
2022-07-27T00:01:11.944Z,18.16
2022-07-27T00:02:11.843Z,18.16
2022-07-27T00:03:11.843Z,18.17
2022-07-27T00:04:11.900Z,18.16
2022-07-27T00:05:11.816Z,18.17
2022-07-27T00:06:11.870Z,18.17
2022-07-27T00:07:11.833Z,18.17
2022-07-27T00:08:11.753Z,18.17
2022-07-27T00:09:12.122Z,18.17
2022-07-27T00:10:11.796Z,18.14
2022-07-27T00:11:11.727Z,18.13
2022-07-27T00:12:11.717Z,18.11
2022-07-27T00:13:11.710Z,18.11
2022-07-27T00:14:11.721Z,18.10
2022-07-27T00:15:11.725Z,18.08
2022-07-27T00:16:11.745Z,18.06
2022-07-27T00:17:11.889Z,18.02
2022-07-27T00:18:11.654Z,17.99
2022-07-27T00:19:11.990Z,17.99
2022-07-27T00:20:11.652Z,17.94
2022-07-27T00:21:11.611Z,17.90
2022-07-27T00:22:11.568Z,17.88
2022-07-27T00:23:11.568Z,17.86
2022-07-27T00:24:11.633Z,17.83
2022-07-27T00:25:11.582Z,17.80
2022-07-27T00:26:11.582Z,17.79
2022-07-27T00:27:11.582Z,17.76
2022-07-27T00:28:11.508Z,17.74
2022-07-27T00:29:11.745Z,17.71
2022-07-27T00:30:11.467Z,17.66
2022-07-27T00:31:11.535Z,17.66
2022-07-27T00:32:12.802Z,17.63
2022-07-27T00:33:11.458Z,17.62
2022-07-27T00:34:12.460Z,17.58
2022-07-27T00:35:11.446Z,17.58
2022-07-27T00:36:11.434Z,17.55
2022-07-27T00:37:11.383Z,17.55
2022-07-27T00:38:11.384Z,17.54
2022-07-27T00:39:11.727Z,17.50
2022-07-27T00:40:11.353Z,17.49
2022-07-27T00:41:11.363Z,17.49
2022-07-27T00:42:11.314Z,17.47
2022-07-27T00:43:11.333Z,17.47
2022-07-27T00:44:11.312Z,17.46
2022-07-27T00:45:11.287Z,17.45
2022-07-27T00:46:11.401Z,17.42
2022-07-27T00:47:11.272Z,17.40
2022-07-27T00:48:11.232Z,17.39
2022-07-27T00:49:11.627Z,17.38
2022-07-27T00:50:11.315Z,17.36
2022-07-27T00:51:11.231Z,17.35
2022-07-27T00:52:11.181Z,17.35
2022-07-27T00:53:11.201Z,17.35
2022-07-27T00:54:11.182Z,17.32
2022-07-27T00:55:11.169Z,17.32
2022-07-27T00:56:11.140Z,17.31
2022-07-27T00:57:11.161Z,17.30
2022-07-27T00:58:11.128Z,17.30
2022-07-27T00:59:11.504Z,17.28
2022-07-27T01:00:11.072Z,17.27
2022-07-27T01:01:11.082Z,17.27
2022-07-27T01:02:12.166Z,17.24
2022-07-27T01:03:11.156Z,17.24
2022-07-27T01:04:11.040Z,17.21
2022-07-27T01:05:11.027Z,17.21
2022-07-27T01:06:11.090Z,17.21
2022-07-27T01:07:10.993Z,17.20
2022-07-27T01:08:11.921Z,17.18
2022-07-27T01:09:11.285Z,17.17
2022-07-27T01:10:10.936Z,17.17
2022-07-27T01:11:10.969Z,17.13
2022-07-27T01:12:10.936Z,17.12
2022-07-27T01:13:12.590Z,17.10
2022-07-27T01:14:10.893Z,17.10
2022-07-27T01:15:10.925Z,17.06
2022-07-27T01:16:10.912Z,17.05
2022-07-27T01:17:10.875Z,17.03
2022-07-27T01:18:10.884Z,17.05
2022-07-27T01:19:11.052Z,17.00
2022-07-27T01:20:10.865Z,17.00
2022-07-27T01:21:10.849Z,17.00
2022-07-27T01:22:10.843Z,16.99
2022-07-27T01:23:10.820Z,16.97
2022-07-27T01:24:10.776Z,16.97
2022-07-27T01:25:10.793Z,16.99
2022-07-27T01:26:10.748Z,16.97
2022-07-27T01:27:10.724Z,16.99
2022-07-27T01:28:10.749Z,16.95
2022-07-27T01:29:10.914Z,16.97
2022-07-27T01:30:10.726Z,16.94
2022-07-27T01:31:10.701Z,16.94
2022-07-27T01:32:10.651Z,16.94
2022-07-27T01:33:10.650Z,16.92
2022-07-27T01:34:10.642Z,16.92
2022-07-27T01:35:10.632Z,16.91
2022-07-27T01:36:10.610Z,16.90
2022-07-27T01:37:10.641Z,16.90
2022-07-27T01:38:10.600Z,16.90
2022-07-27T01:39:10.927Z,16.88
2022-07-27T01:40:10.565Z,16.87
2022-07-27T01:41:10.546Z,16.85
2022-07-27T01:42:10.530Z,16.84
2022-07-27T01:43:10.633Z,16.84
2022-07-27T01:44:10.489Z,16.80
2022-07-27T01:45:10.479Z,16.81
2022-07-27T01:46:10.530Z,16.80
2022-07-27T01:47:13.953Z,16.77
2022-07-27T01:48:10.514Z,16.76
2022-07-27T01:49:10.749Z,16.74
2022-07-27T01:50:10.430Z,16.74
2022-07-27T01:51:10.427Z,16.74
2022-07-27T01:52:10.392Z,16.73
2022-07-27T01:53:10.825Z,16.72
2022-07-27T01:54:10.412Z,16.72
2022-07-27T01:55:10.397Z,16.72
2022-07-27T01:56:10.366Z,16.70
2022-07-27T01:57:10.341Z,16.67
2022-07-27T01:58:10.344Z,16.67
2022-07-27T01:59:16.222Z,16.67
2022-07-27T02:00:11.316Z,16.65
2022-07-27T02:01:10.354Z,16.65
2022-07-27T02:02:10.303Z,16.66
2022-07-27T02:03:10.244Z,16.66
2022-07-27T02:04:10.273Z,16.63
2022-07-27T02:05:10.285Z,16.63
2022-07-27T02:06:10.311Z,16.62
2022-07-27T02:07:10.195Z,16.63
2022-07-27T02:08:10.211Z,16.62
2022-07-27T02:09:10.474Z,16.59
2022-07-27T02:10:10.212Z,16.59
2022-07-27T02:11:10.189Z,16.57
2022-07-27T02:12:10.135Z,16.58
2022-07-27T02:13:21.918Z,16.57
2022-07-27T02:14:11.091Z,16.55
2022-07-27T02:15:15.091Z,16.54
2022-07-27T02:16:16.660Z,16.49
2022-07-27T02:17:11.091Z,16.47
2022-07-27T02:18:26.762Z,16.45
2022-07-27T02:19:12.046Z,16.40
2022-07-27T02:20:10.075Z,16.37
2022-07-27T02:21:10.058Z,16.39
2022-07-27T02:22:10.033Z,16.36
2022-07-27T02:23:10.045Z,16.34
2022-07-27T02:24:09.999Z,16.36
2022-07-27T02:25:10.071Z,16.34
2022-07-27T02:26:09.988Z,16.34
2022-07-27T02:27:09.937Z,16.32
2022-07-27T02:28:09.926Z,16.32
2022-07-27T02:29:10.191Z,16.30
2022-07-27T02:30:09.931Z,16.27
2022-07-27T02:31:09.898Z,16.26
2022-07-27T02:32:09.864Z,16.25
2022-07-27T02:33:09.960Z,16.22
2022-07-27T02:34:09.857Z,16.22
2022-07-27T02:35:18.219Z,16.18
2022-07-27T02:36:10.844Z,16.18
2022-07-27T02:37:09.805Z,16.18
2022-07-27T02:38:09.795Z,16.16
2022-07-27T02:39:10.084Z,16.16
2022-07-27T02:40:09.804Z,16.14
2022-07-27T02:41:09.803Z,16.13
2022-07-27T02:42:09.831Z,16.11
2022-07-27T02:43:09.727Z,16.13
2022-07-27T02:44:09.744Z,16.10
2022-07-27T02:45:09.693Z,16.10
2022-07-27T02:46:09.758Z,16.08
2022-07-27T02:47:09.713Z,16.08
2022-07-27T02:48:09.661Z,16.08
2022-07-27T02:49:10.065Z,16.08
2022-07-27T02:50:09.672Z,16.07
2022-07-27T02:51:09.636Z,16.04
2022-07-27T02:52:09.612Z,16.06
2022-07-27T02:53:09.612Z,16.02
2022-07-27T02:54:09.594Z,16.00
2022-07-27T02:55:09.612Z,16.00
2022-07-27T02:56:09.578Z,15.98
2022-07-27T02:57:09.578Z,15.96
2022-07-27T02:58:09.540Z,15.96
2022-07-27T02:59:09.824Z,15.96
2022-07-27T03:00:09.551Z,15.96
2022-07-27T03:01:09.537Z,15.96
2022-07-27T03:02:09.497Z,15.96
2022-07-27T03:03:09.517Z,15.98
2022-07-27T03:04:09.540Z,15.98
2022-07-27T03:05:09.468Z,15.98
2022-07-27T03:06:09.438Z,16.00
2022-07-27T03:07:09.443Z,16.00
2022-07-27T03:08:09.429Z,16.00
2022-07-27T03:09:09.736Z,16.02
2022-07-27T03:10:09.441Z,16.06
2022-07-27T03:11:09.406Z,16.06
2022-07-27T03:12:09.574Z,16.07
2022-07-27T03:13:09.364Z,16.10
2022-07-27T03:14:09.356Z,16.11
2022-07-27T03:15:09.344Z,16.13
2022-07-27T03:16:09.396Z,16.13
2022-07-27T03:17:09.337Z,16.14
2022-07-27T03:18:09.289Z,16.14
2022-07-27T03:19:09.572Z,16.16
2022-07-27T03:20:09.477Z,16.16
2022-07-27T03:21:09.322Z,16.16
2022-07-27T03:22:09.284Z,16.17
2022-07-27T03:23:09.227Z,16.18
2022-07-27T03:24:09.265Z,16.18
2022-07-27T03:25:09.215Z,16.21
2022-07-27T03:26:09.172Z,16.21
2022-07-27T03:27:09.233Z,16.18
2022-07-27T03:28:09.153Z,16.18
2022-07-27T03:29:09.602Z,16.17
2022-07-27T03:30:09.181Z,16.18
2022-07-27T03:31:09.208Z,16.16
2022-07-27T03:32:09.142Z,16.17
2022-07-27T03:33:09.100Z,16.17
2022-07-27T03:34:09.083Z,16.14
2022-07-27T03:35:09.080Z,16.14
2022-07-27T03:36:09.093Z,16.16
2022-07-27T03:37:09.051Z,16.13
2022-07-27T03:38:09.099Z,16.13
2022-07-27T03:39:09.459Z,16.13
2022-07-27T03:40:09.114Z,16.13
2022-07-27T03:41:09.018Z,16.13
2022-07-27T03:42:09.019Z,16.14
2022-07-27T03:43:08.972Z,16.14
2022-07-27T03:44:08.955Z,16.14
2022-07-27T03:45:08.982Z,16.14
2022-07-27T03:46:09.051Z,16.16
2022-07-27T03:47:08.922Z,16.13
2022-07-27T03:48:08.932Z,16.14
2022-07-27T03:49:14.386Z,16.13
2022-07-27T03:50:09.877Z,16.13
2022-07-27T03:51:08.887Z,16.11
2022-07-27T03:52:09.670Z,16.11
2022-07-27T03:53:08.885Z,16.08
2022-07-27T03:54:08.866Z,16.08
2022-07-27T03:55:08.826Z,16.07
2022-07-27T03:56:08.803Z,16.06
2022-07-27T03:57:08.813Z,16.00
2022-07-27T03:58:08.866Z,15.98
2022-07-27T03:59:09.136Z,15.95
2022-07-27T04:00:08.810Z,15.91
2022-07-27T04:01:08.830Z,15.92
2022-07-27T04:02:08.764Z,15.92
2022-07-27T04:03:08.790Z,15.93
2022-07-27T04:04:08.714Z,15.92
2022-07-27T04:05:08.682Z,15.92
2022-07-27T04:06:08.713Z,15.92
2022-07-27T04:07:08.673Z,15.92
2022-07-27T04:08:08.692Z,15.91
2022-07-27T04:09:09.193Z,15.91
2022-07-27T04:10:08.653Z,15.92
2022-07-27T04:11:08.662Z,15.89
2022-07-27T04:12:08.651Z,15.89
2022-07-27T04:13:08.601Z,15.91
2022-07-27T04:14:08.616Z,15.88
2022-07-27T04:15:08.590Z,15.88
2022-07-27T04:16:09.138Z,15.88
2022-07-27T04:17:08.599Z,15.86
2022-07-27T04:18:08.529Z,15.88
2022-07-27T04:19:08.779Z,15.88
2022-07-27T04:20:08.510Z,15.86
2022-07-27T04:21:08.488Z,15.86
2022-07-27T04:22:08.518Z,15.86
2022-07-27T04:23:09.410Z,15.86
2022-07-27T04:24:08.480Z,15.83
2022-07-27T04:25:08.479Z,15.83
2022-07-27T04:26:08.554Z,15.83
2022-07-27T04:27:08.418Z,15.81
2022-07-27T04:28:08.468Z,15.80
2022-07-27T04:29:08.543Z,15.78
2022-07-27T04:30:09.813Z,15.78
2022-07-27T04:31:08.468Z,15.77
2022-07-27T04:32:08.367Z,15.77
2022-07-27T04:33:08.336Z,15.74
2022-07-27T04:34:08.380Z,15.74
2022-07-27T04:35:08.304Z,15.74
2022-07-27T04:36:08.295Z,15.73
2022-07-27T04:37:08.275Z,15.74
2022-07-27T04:38:08.316Z,15.73
2022-07-27T04:39:08.485Z,15.73
2022-07-27T04:40:08.248Z,15.74
2022-07-27T04:41:08.234Z,15.74
2022-07-27T04:42:08.265Z,15.75
2022-07-27T04:43:08.246Z,15.75
2022-07-27T04:44:08.277Z,15.77
2022-07-27T04:45:08.192Z,15.77
2022-07-27T04:46:13.205Z,15.77
2022-07-27T04:47:09.184Z,15.77
2022-07-27T04:48:08.169Z,15.80
2022-07-27T04:49:08.183Z,15.78
2022-07-27T04:50:08.164Z,15.80
2022-07-27T04:51:08.111Z,15.80
2022-07-27T04:52:08.160Z,15.83
2022-07-27T04:53:08.100Z,15.83
2022-07-27T04:54:08.101Z,15.84
2022-07-27T04:55:08.271Z,15.84
2022-07-27T04:56:08.060Z,15.88
2022-07-27T04:57:08.020Z,15.88
2022-07-27T04:58:08.033Z,15.91
2022-07-27T04:59:08.015Z,15.93
2022-07-27T05:00:08.023Z,15.96
2022-07-27T05:01:08.011Z,15.98
2022-07-27T05:02:08.407Z,16.00
2022-07-27T05:03:07.949Z,16.02
2022-07-27T05:04:08.096Z,16.04
2022-07-27T05:05:07.997Z,16.07
2022-07-27T05:06:07.919Z,16.10
2022-07-27T05:07:07.924Z,16.13
2022-07-27T05:08:07.887Z,16.16
2022-07-27T05:09:07.896Z,16.17
2022-07-27T05:10:07.916Z,16.21
2022-07-27T05:11:07.886Z,16.25
2022-07-27T05:12:07.845Z,16.29
2022-07-27T05:13:07.831Z,16.30
2022-07-27T05:14:07.869Z,16.33
2022-07-27T05:15:08.045Z,16.34
2022-07-27T05:16:07.870Z,16.37
2022-07-27T05:17:07.788Z,16.39
2022-07-27T05:18:07.770Z,16.44
2022-07-27T05:19:07.808Z,16.45
2022-07-27T05:20:07.746Z,16.47
2022-07-27T05:21:07.726Z,16.48
2022-07-27T05:22:07.737Z,16.51
2022-07-27T05:23:07.709Z,16.54
2022-07-27T05:24:07.697Z,16.54
2022-07-27T05:25:07.693Z,16.58
2022-07-27T05:26:07.685Z,16.58
2022-07-27T05:27:07.705Z,16.62
2022-07-27T05:28:07.642Z,16.63
2022-07-27T05:29:07.622Z,16.67
2022-07-27T05:30:07.623Z,16.67
2022-07-27T05:31:07.622Z,16.67
2022-07-27T05:32:07.647Z,16.70
2022-07-27T05:33:07.587Z,16.73
2022-07-27T05:34:07.550Z,16.73
2022-07-27T05:35:07.613Z,16.74
2022-07-27T05:36:07.956Z,16.73
2022-07-27T05:37:07.575Z,16.76
2022-07-27T05:38:07.523Z,16.73
2022-07-27T05:39:11.828Z,16.74
2022-07-27T05:40:08.480Z,16.77
2022-07-27T05:41:07.470Z,16.77
2022-07-27T05:42:07.461Z,16.80
2022-07-27T05:43:07.439Z,16.82
2022-07-27T05:44:07.439Z,16.82
2022-07-27T05:45:07.415Z,16.85
2022-07-27T05:46:07.496Z,16.87
2022-07-27T05:47:07.428Z,16.90
2022-07-27T05:48:07.375Z,16.91
2022-07-27T05:49:07.410Z,16.92
2022-07-27T05:50:07.445Z,16.95
2022-07-27T05:51:07.320Z,16.97
2022-07-27T05:52:07.367Z,17.02
2022-07-27T05:53:07.297Z,17.02
2022-07-27T05:54:07.316Z,17.05
2022-07-27T05:55:07.306Z,17.06
2022-07-27T05:56:07.276Z,17.09
2022-07-27T05:57:07.402Z,17.13
2022-07-27T05:58:07.258Z,17.18
2022-07-27T05:59:07.604Z,17.21
2022-07-27T06:00:07.206Z,17.25
2022-07-27T06:01:07.253Z,17.28
2022-07-27T06:02:07.184Z,17.31
2022-07-27T06:03:07.220Z,17.36
2022-07-27T06:04:07.195Z,17.40
2022-07-27T06:05:10.613Z,17.45
2022-07-27T06:06:08.154Z,17.46
2022-07-27T06:07:07.135Z,17.52
2022-07-27T06:08:07.107Z,17.57
2022-07-27T06:09:07.113Z,17.62
2022-07-27T06:10:08.819Z,17.68
2022-07-27T06:11:07.070Z,17.73
2022-07-27T06:12:07.125Z,17.76
2022-07-27T06:13:07.075Z,17.80
2022-07-27T06:14:07.054Z,17.84
2022-07-27T06:15:07.020Z,17.88
2022-07-27T06:16:07.074Z,17.96
2022-07-27T06:17:07.001Z,18.01
2022-07-27T06:18:06.983Z,18.06
2022-07-27T06:19:06.960Z,18.11
2022-07-27T06:20:06.953Z,18.17
2022-07-27T06:21:06.959Z,18.19
2022-07-27T06:22:06.973Z,18.23
2022-07-27T06:23:08.005Z,18.27
2022-07-27T06:24:06.958Z,18.31
2022-07-27T06:25:06.951Z,18.34
2022-07-27T06:26:06.870Z,18.39
2022-07-27T06:27:06.853Z,18.41
2022-07-27T06:28:06.842Z,18.45
2022-07-27T06:29:10.586Z,18.50
2022-07-27T06:30:06.848Z,18.54
2022-07-27T06:31:06.883Z,18.57
2022-07-27T06:32:06.853Z,18.63
2022-07-27T06:33:06.852Z,18.68
2022-07-27T06:34:11.615Z,18.71
2022-07-27T06:35:07.786Z,18.74
2022-07-27T06:36:06.757Z,18.78
2022-07-27T06:37:06.716Z,18.81
2022-07-27T06:38:06.718Z,18.84
2022-07-27T06:39:06.695Z,18.87
2022-07-27T06:40:06.685Z,18.90
2022-07-27T06:41:06.676Z,18.91
2022-07-27T06:42:06.666Z,18.96
2022-07-27T06:43:06.638Z,18.99
2022-07-27T06:44:06.645Z,19.02
2022-07-27T06:45:06.707Z,19.06
2022-07-27T06:46:06.625Z,19.10
2022-07-27T06:47:06.649Z,19.13
2022-07-27T06:48:06.595Z,19.20
2022-07-27T06:49:06.634Z,19.25
2022-07-27T06:50:06.563Z,19.31
2022-07-27T06:51:06.552Z,19.34
2022-07-27T06:52:06.554Z,19.37
2022-07-27T06:53:06.513Z,19.40
2022-07-27T06:54:06.504Z,19.42
2022-07-27T06:55:06.512Z,19.46
2022-07-27T06:56:06.533Z,19.50
2022-07-27T06:57:06.471Z,19.50
2022-07-27T06:58:06.481Z,19.52
2022-07-27T06:59:06.432Z,19.53
2022-07-27T07:00:06.457Z,19.56
2022-07-27T07:01:06.504Z,19.57
2022-07-27T07:02:06.421Z,19.60
2022-07-27T07:03:06.391Z,19.61
2022-07-27T07:04:06.437Z,19.63
2022-07-27T07:05:06.364Z,19.63
2022-07-27T07:06:06.369Z,19.63
2022-07-27T07:07:07.365Z,19.65
2022-07-27T07:08:06.351Z,19.65
2022-07-27T07:09:06.314Z,19.68
2022-07-27T07:10:06.309Z,19.70
2022-07-27T07:11:06.288Z,19.70
2022-07-27T07:12:06.334Z,19.70
2022-07-27T07:13:06.252Z,19.70
2022-07-27T07:14:06.268Z,19.71
2022-07-27T07:15:06.231Z,19.71
2022-07-27T07:16:06.235Z,19.71
2022-07-27T07:17:06.248Z,19.71
2022-07-27T07:18:06.226Z,19.71
2022-07-27T07:19:06.197Z,19.72
2022-07-27T07:20:06.176Z,19.70
2022-07-27T07:21:06.151Z,19.72
2022-07-27T07:22:06.148Z,19.72
2022-07-27T07:23:06.155Z,19.74
2022-07-27T07:24:06.146Z,19.75
2022-07-27T07:25:06.117Z,19.78
2022-07-27T07:26:06.089Z,19.80
2022-07-27T07:27:06.267Z,19.80
2022-07-27T07:28:06.077Z,19.85
2022-07-27T07:29:06.075Z,19.87
2022-07-27T07:30:06.036Z,19.92
2022-07-27T07:31:06.084Z,19.95
2022-07-27T07:32:06.020Z,20.00
2022-07-27T07:33:05.997Z,20.02
2022-07-27T07:34:06.004Z,20.04
2022-07-27T07:35:05.989Z,20.05
2022-07-27T07:36:14.054Z,20.07
2022-07-27T07:37:06.972Z,20.11
2022-07-27T07:38:05.963Z,20.12
2022-07-27T07:39:05.944Z,20.15
2022-07-27T07:40:40.071Z,20.16
2022-07-27T07:41:06.942Z,20.18
2022-07-27T07:42:05.894Z,20.22
2022-07-27T07:43:06.876Z,20.25
2022-07-27T07:44:05.871Z,20.29
2022-07-27T07:45:05.843Z,20.32
2022-07-27T07:46:05.953Z,20.34
2022-07-27T07:47:05.939Z,20.40
2022-07-27T07:48:05.812Z,20.42
2022-07-27T07:49:05.872Z,20.49
2022-07-27T07:50:05.801Z,20.54
2022-07-27T07:51:05.772Z,20.56
2022-07-27T07:52:05.760Z,20.61
2022-07-27T07:53:05.768Z,20.66
2022-07-27T07:54:05.749Z,20.67
2022-07-27T07:55:05.749Z,20.71
2022-07-27T07:56:05.783Z,20.74
2022-07-27T07:57:05.718Z,20.74
2022-07-27T07:58:05.711Z,20.76
2022-07-27T07:59:05.869Z,20.76
2022-07-27T08:00:05.701Z,20.76
2022-07-27T08:01:05.661Z,20.81
2022-07-27T08:02:05.713Z,20.83
2022-07-27T08:03:05.665Z,20.88
2022-07-27T08:04:05.626Z,20.91
2022-07-27T08:05:05.628Z,20.96
2022-07-27T08:06:05.595Z,20.97
2022-07-27T08:07:05.593Z,21.00
2022-07-27T08:08:05.567Z,21.06
2022-07-27T08:09:05.589Z,21.06
2022-07-27T08:10:05.555Z,21.09
2022-07-27T08:11:05.546Z,21.09
2022-07-27T08:12:05.527Z,21.12
2022-07-27T08:13:05.476Z,21.13
2022-07-27T08:14:05.475Z,21.16
2022-07-27T08:15:05.454Z,21.21
2022-07-27T08:16:05.507Z,21.22
2022-07-27T08:17:05.437Z,21.27
2022-07-27T08:18:05.612Z,21.30
2022-07-27T08:19:05.424Z,21.34
2022-07-27T08:20:05.394Z,21.37
2022-07-27T08:21:05.418Z,21.38
2022-07-27T08:22:05.416Z,21.41
2022-07-27T08:23:05.362Z,21.45
2022-07-27T08:24:05.351Z,21.48
2022-07-27T08:25:05.357Z,21.49
2022-07-27T08:26:08.010Z,21.49
2022-07-27T08:27:05.310Z,21.48
2022-07-27T08:28:05.332Z,21.48
2022-07-27T08:29:11.256Z,21.43
2022-07-27T08:30:06.278Z,21.43
2022-07-27T08:31:09.031Z,21.40
2022-07-27T08:32:06.348Z,21.38
2022-07-27T08:33:05.252Z,21.34
2022-07-27T08:34:05.232Z,21.28
2022-07-27T08:35:05.243Z,21.22
2022-07-27T08:36:05.270Z,21.16
2022-07-27T08:37:05.180Z,21.11
2022-07-27T08:38:05.170Z,21.08
2022-07-27T08:39:05.160Z,21.01
2022-07-27T08:41:06.145Z,20.97
2022-07-27T08:42:05.113Z,20.93
2022-07-27T08:43:05.409Z,20.91
2022-07-27T08:44:05.130Z,20.86
2022-07-27T08:45:05.094Z,20.86
2022-07-27T08:46:05.142Z,20.85
2022-07-27T08:47:05.185Z,20.90
2022-07-27T08:48:05.057Z,20.91
2022-07-27T08:49:05.107Z,20.94
2022-07-27T08:50:05.014Z,20.96
2022-07-27T08:51:05.010Z,21.00
2022-07-27T08:52:04.997Z,21.01
2022-07-27T08:53:05.113Z,21.04
2022-07-27T08:54:04.966Z,21.06
2022-07-27T08:55:04.945Z,21.11
2022-07-27T08:56:04.945Z,21.13
2022-07-27T08:57:04.925Z,21.15
2022-07-27T08:58:04.927Z,21.19
2022-07-27T08:59:04.911Z,21.22
2022-07-27T09:00:04.885Z,21.27
2022-07-27T09:01:04.893Z,21.30
2022-07-27T09:02:04.918Z,21.34
2022-07-27T09:03:04.919Z,21.38
2022-07-27T09:04:04.834Z,21.45
2022-07-27T09:05:04.837Z,21.49
2022-07-27T09:06:04.814Z,21.55
2022-07-27T09:07:04.798Z,21.58
2022-07-27T09:08:04.822Z,21.61
2022-07-27T09:09:04.791Z,21.66
2022-07-27T09:10:04.758Z,21.70
2022-07-27T09:11:04.753Z,21.74
2022-07-27T09:12:04.732Z,21.80
2022-07-27T09:13:04.732Z,21.89
2022-07-27T09:14:04.701Z,21.93
2022-07-27T09:15:04.701Z,21.97
2022-07-27T09:16:21.089Z,22.00
2022-07-27T09:18:05.740Z,22.00
2022-07-27T09:19:04.644Z,22.07
2022-07-27T09:20:04.622Z,22.09
2022-07-27T09:21:04.630Z,22.14
2022-07-27T09:22:04.599Z,22.20
2022-07-27T09:23:04.613Z,22.24
2022-07-27T09:24:09.536Z,22.31
2022-07-27T09:25:05.634Z,22.36
2022-07-27T09:26:14.487Z,22.38
2022-07-27T09:27:05.778Z,22.42
2022-07-27T09:28:04.549Z,22.46
2022-07-27T09:29:04.530Z,22.51
2022-07-27T09:30:04.497Z,22.51
2022-07-27T09:31:04.502Z,22.49
2022-07-27T09:32:04.526Z,22.49
2022-07-27T09:33:04.469Z,22.45
2022-07-27T09:34:04.462Z,22.38
2022-07-27T09:35:04.438Z,22.30
2022-07-27T09:36:04.475Z,22.24
2022-07-27T09:37:05.934Z,22.22
2022-07-27T09:38:04.453Z,22.18
2022-07-27T09:39:04.406Z,22.18
2022-07-27T09:40:04.377Z,22.18
2022-07-27T09:41:04.356Z,22.14
2022-07-27T09:42:04.374Z,22.09
2022-07-27T09:43:12.521Z,22.05
2022-07-27T09:44:30.869Z,22.00
2022-07-27T09:45:05.326Z,21.96
2022-07-27T09:46:04.363Z,21.89
2022-07-27T09:47:04.285Z,21.83
2022-07-27T09:48:04.285Z,21.76
2022-07-27T09:49:04.322Z,21.73
2022-07-27T09:50:04.257Z,21.71
2022-07-27T09:51:32.772Z,21.70
2022-07-27T09:52:05.309Z,21.68
2022-07-27T09:53:25.673Z,21.67
2022-07-27T09:54:05.192Z,21.67
2022-07-27T09:55:04.188Z,21.66
2022-07-27T09:56:04.198Z,21.66
2022-07-27T09:57:04.183Z,21.68
2022-07-27T09:58:04.146Z,21.68
2022-07-27T09:59:04.133Z,21.73
2022-07-27T10:00:04.115Z,21.77
2022-07-27T10:01:04.123Z,21.82
2022-07-27T10:02:04.203Z,21.89
2022-07-27T10:03:04.112Z,21.93
2022-07-27T10:04:04.117Z,22.00
2022-07-27T10:05:04.339Z,22.07
2022-07-27T10:06:04.072Z,22.14
2022-07-27T10:07:07.285Z,22.22
2022-07-27T10:08:04.016Z,22.30
2022-07-27T10:09:04.017Z,22.36
2022-07-27T10:10:03.999Z,22.45
2022-07-27T10:11:03.991Z,22.51
2022-07-27T10:12:03.973Z,22.57
2022-07-27T10:13:03.953Z,22.64
2022-07-27T10:14:03.930Z,22.69
2022-07-27T10:15:03.921Z,22.76
2022-07-27T10:16:04.014Z,22.82
2022-07-27T10:17:03.924Z,22.85
2022-07-27T10:18:07.077Z,22.89
2022-07-27T10:19:03.893Z,22.97
2022-07-27T10:20:03.861Z,23.01
2022-07-27T10:21:03.850Z,23.09
2022-07-27T10:22:03.865Z,23.14
2022-07-27T10:23:03.837Z,23.19
2022-07-27T10:24:03.856Z,23.22
2022-07-27T10:25:03.801Z,23.25
2022-07-27T10:26:03.778Z,23.24
2022-07-27T10:27:03.777Z,23.25
2022-07-27T10:28:03.748Z,23.29
2022-07-27T10:29:03.764Z,23.37
2022-07-27T10:30:03.737Z,23.40
2022-07-27T10:31:03.761Z,23.41
2022-07-27T10:32:03.764Z,23.40
2022-07-27T10:33:03.715Z,23.29
2022-07-27T10:34:03.696Z,23.21
2022-07-27T10:35:03.687Z,23.16
2022-07-27T10:36:03.650Z,23.14
2022-07-27T10:37:03.665Z,23.16
2022-07-27T10:38:03.641Z,23.10
2022-07-27T10:39:03.666Z,23.07
2022-07-27T10:40:03.607Z,23.06
2022-07-27T10:41:03.605Z,22.96
2022-07-27T10:42:03.587Z,22.91
2022-07-27T10:43:03.594Z,22.89
2022-07-27T10:44:03.567Z,22.84
2022-07-27T10:45:03.544Z,22.75
2022-07-27T10:46:03.632Z,22.71
2022-07-27T10:47:03.531Z,22.67
2022-07-27T10:48:03.504Z,22.64
2022-07-27T10:49:03.577Z,22.61
2022-07-27T10:50:03.486Z,22.64
2022-07-27T10:51:03.463Z,22.69
2022-07-27T10:52:03.476Z,22.75
2022-07-27T10:53:03.445Z,22.81
2022-07-27T10:54:22.803Z,22.86
2022-07-27T10:55:04.461Z,22.94
2022-07-27T10:56:03.391Z,23.00
2022-07-27T10:57:03.385Z,23.01
2022-07-27T10:58:03.373Z,23.07
2022-07-27T10:59:03.460Z,23.12
2022-07-27T11:00:14.858Z,23.15
2022-07-27T11:01:04.409Z,23.21
2022-07-27T11:02:03.311Z,23.25
2022-07-27T11:03:03.339Z,23.32
2022-07-27T11:04:03.346Z,23.38
2022-07-27T11:05:03.320Z,23.41
2022-07-27T11:06:21.959Z,23.42
2022-07-27T11:07:24.068Z,23.42
2022-07-27T11:08:35.267Z,23.41
2022-07-27T11:10:05.140Z,23.42
2022-07-27T11:11:03.213Z,23.53
2022-07-27T11:12:03.199Z,23.55
2022-07-27T11:13:09.720Z,23.53
2022-07-27T11:14:04.241Z,23.52
2022-07-27T11:15:03.151Z,23.47
2022-07-27T11:16:23.533Z,23.44
2022-07-27T11:17:32.212Z,23.42
2022-07-27T11:18:05.199Z,23.41
2022-07-27T11:19:03.177Z,23.41
2022-07-27T11:20:03.113Z,23.41
2022-07-27T11:21:04.599Z,23.42
2022-07-27T11:22:04.687Z,23.45
2022-07-27T11:24:04.054Z,23.47
2022-07-27T11:25:03.087Z,23.50
2022-07-27T11:26:03.034Z,23.55
2022-07-27T11:27:02.996Z,23.62
2022-07-27T11:28:04.010Z,23.70
2022-07-27T11:29:02.976Z,23.74
2022-07-27T11:30:02.966Z,23.67
2022-07-27T11:31:03.877Z,23.70
2022-07-27T11:32:03.047Z,23.70
2022-07-27T11:33:02.927Z,23.67
2022-07-27T11:34:02.908Z,23.66
2022-07-27T11:35:06.457Z,23.70
2022-07-27T11:36:03.900Z,23.67
2022-07-27T11:37:02.925Z,23.70
2022-07-27T11:38:02.873Z,23.62
2022-07-27T11:39:02.845Z,23.60
2022-07-27T11:40:03.292Z,23.57
2022-07-27T11:41:15.178Z,23.53
2022-07-27T11:42:08.377Z,23.52
2022-07-27T11:43:03.814Z,23.50
2022-07-27T11:44:02.823Z,23.47
2022-07-27T11:45:02.784Z,23.50
2022-07-27T11:46:02.861Z,23.48
2022-07-27T11:47:02.777Z,23.45
2022-07-27T11:48:02.723Z,23.47
2022-07-27T11:49:07.522Z,23.48
2022-07-27T11:50:03.809Z,23.47
2022-07-27T11:51:02.714Z,23.47
2022-07-27T11:52:02.702Z,23.42
2022-07-27T11:53:02.669Z,23.37
2022-07-27T11:54:02.673Z,23.29
2022-07-27T11:55:02.664Z,23.29
2022-07-27T11:56:02.690Z,23.32
2022-07-27T11:57:02.670Z,23.38
2022-07-27T11:58:02.621Z,23.38
2022-07-27T11:59:02.598Z,23.45
2022-07-27T12:00:02.623Z,23.52
2022-07-27T12:01:02.574Z,23.63
2022-07-27T12:02:02.677Z,23.74
2022-07-27T12:03:02.572Z,23.82
2022-07-27T12:04:02.608Z,23.87
2022-07-27T12:05:03.389Z,23.93
2022-07-27T12:06:02.515Z,23.94
2022-07-27T12:07:02.556Z,23.94
2022-07-27T12:08:03.463Z,23.93
2022-07-27T12:09:02.478Z,23.90
2022-07-27T12:10:02.481Z,23.85
2022-07-27T12:11:02.437Z,23.78
2022-07-27T12:12:02.462Z,23.75
2022-07-27T12:13:02.471Z,23.72
2022-07-27T12:14:02.412Z,23.66
2022-07-27T12:15:11.900Z,23.62
2022-07-27T12:16:03.379Z,23.57
2022-07-27T12:17:02.427Z,23.56
2022-07-27T12:18:02.357Z,23.59
2022-07-27T12:19:02.348Z,23.70
2022-07-27T12:20:02.337Z,23.78
2022-07-27T12:21:02.315Z,23.84
2022-07-27T12:22:02.318Z,23.90
2022-07-27T12:23:02.306Z,23.90
2022-07-27T12:24:02.316Z,23.90
2022-07-27T12:25:02.299Z,23.94
2022-07-27T12:26:02.308Z,24.04
2022-07-27T12:27:06.421Z,24.12
2022-07-27T12:28:02.247Z,24.24
2022-07-27T12:29:02.215Z,24.24
2022-07-27T12:30:02.543Z,24.19
2022-07-27T12:31:02.239Z,24.19
2022-07-27T12:32:02.186Z,24.30
2022-07-27T12:33:02.203Z,24.37
2022-07-27T12:34:06.263Z,24.45
2022-07-27T12:35:02.200Z,24.51
2022-07-27T12:36:02.169Z,24.55
2022-07-27T12:37:02.124Z,24.54
2022-07-27T12:38:02.104Z,24.61
2022-07-27T12:39:02.115Z,24.74
2022-07-27T12:40:02.105Z,24.80
2022-07-27T12:41:02.086Z,24.83
2022-07-27T12:42:02.114Z,24.83
2022-07-27T12:43:02.050Z,24.89
2022-07-27T12:44:02.083Z,24.93
2022-07-27T12:45:02.019Z,24.96
2022-07-27T12:46:02.084Z,25.01
2022-07-27T12:47:02.025Z,25.02
2022-07-27T12:48:01.972Z,25.00
2022-07-27T12:49:02.051Z,25.01
2022-07-27T12:50:01.964Z,25.00
2022-07-27T12:51:01.930Z,25.01
2022-07-27T12:52:01.920Z,25.11
2022-07-27T12:53:01.900Z,25.23
2022-07-27T12:54:01.921Z,25.34
2022-07-27T12:55:01.889Z,25.51
2022-07-27T12:56:01.885Z,25.64